Time;durP1;ratioP1;P1;durP2;ratioP2;P2;SDS_P1;SDS_P2;PMS_P1;PMS_P2;Temp;Humidity;BMP_temperature;BMP_pressure;BME280_temperature;BME280_humidity;BME280_pressure;Samples;Min_cycle;Max_cycle;Signal;HPM_P1;HPM_P2
2021/01/11 00:00:17;;;;;;;26.00;21.30;;;;;;;;;;4991685;28;20373;-86
2021/01/11 00:02:43;;;;;;;24.52;20.67;;;;;;;;;;4999247;28;20457;-87
2021/01/11 00:05:09;;;;;;;24.10;20.50;;;;;;;;;;5011824;28;20450;-89
2021/01/11 00:07:35;;;;;;;24.75;20.20;;;;;;;;;;5011659;28;20470;-87
2021/01/11 00:10:03;;;;;;;23.17;19.55;;;;;;;;;;5011477;28;20383;-85
2021/01/11 00:12:29;;;;;;;23.13;19.73;;;;;;;;;;5011074;28;20375;-87
2021/01/11 00:14:57;;;;;;;26.60;20.40;;;;;;;;;;5011300;28;20771;-86
2021/01/11 00:17:26;;;;;;;23.63;19.98;;;;;;;;;;4995172;28;20466;-89
2021/01/11 00:19:52;;;;;;;23.92;19.42;;;;;;;;;;5011682;28;20402;-86
2021/01/11 00:22:18;;;;;;;24.13;19.02;;;;;;;;;;5012565;28;20865;-85
2021/01/11 00:24:47;;;;;;;21.98;18.48;;;;;;;;;;5011584;28;20371;-86
2021/01/11 00:27:13;;;;;;;24.42;18.77;;;;;;;;;;5011088;28;20379;-87
2021/01/11 00:29:39;;;;;;;24.70;19.75;;;;;;;;;;5011293;28;20375;-85
2021/01/11 00:32:05;;;;;;;24.85;20.55;;;;;;;;;;5008091;28;20369;-85
2021/01/11 00:34:31;;;;;;;22.13;18.60;;;;;;;;;;4991995;28;20392;-84
2021/01/11 00:39:50;;;;;;;23.17;18.67;;;;;;;;;;4993871;28;20709;-86
2021/01/11 00:42:16;;;;;;;24.60;19.53;;;;;;;;;;5004737;28;20412;-86
2021/01/11 00:44:42;;;;;;;21.90;18.80;;;;;;;;;;4995908;28;20740;-85
2021/01/11 00:47:08;;;;;;;25.07;19.97;;;;;;;;;;5011157;28;20363;-87
2021/01/11 00:49:34;;;;;;;22.35;18.45;;;;;;;;;;5016925;28;20377;-85
2021/01/11 00:52:02;;;;;;;22.55;18.95;;;;;;;;;;4996647;28;20365;-87
2021/01/11 00:54:28;;;;;;;23.05;18.63;;;;;;;;;;4995486;28;20404;-85
2021/01/11 00:56:55;;;;;;;23.80;19.35;;;;;;;;;;4995599;28;20712;-85
2021/01/11 00:59:21;;;;;;;22.83;19.00;;;;;;;;;;4995612;28;20404;-85
2021/01/11 01:01:51;;;;;;;20.80;17.20;;;;;;;;;;4997915;28;20364;-85
2021/01/11 01:04:17;;;;;;;22.70;18.42;;;;;;;;;;5011951;28;20404;-86
2021/01/11 01:06:44;;;;;;;21.13;18.77;;;;;;;;;;5003202;28;20397;-86
2021/01/11 01:09:13;;;;;;;22.05;18.90;;;;;;;;;;5016030;28;20425;-85
2021/01/11 01:11:40;;;;;;;22.58;17.98;;;;;;;;;;5014504;28;20407;-86
2021/01/11 01:14:06;;;;;;;22.23;18.30;;;;;;;;;;5015365;28;20394;-87
2021/01/11 01:16:33;;;;;;;21.50;18.58;;;;;;;;;;5015526;28;20454;-85
2021/01/11 01:18:59;;;;;;;22.10;17.65;;;;;;;;;;5014453;28;20371;-86
2021/01/11 01:21:26;;;;;;;20.98;17.38;;;;;;;;;;5014408;28;20892;-86
2021/01/11 01:23:52;;;;;;;21.65;17.95;;;;;;;;;;4997293;28;20746;-86
2021/01/11 01:26:18;;;;;;;22.30;18.60;;;;;;;;;;5013751;28;20406;-86
2021/01/11 01:28:44;;;;;;;23.48;18.75;;;;;;;;;;5014758;28;20387;-86
2021/01/11 01:31:11;;;;;;;22.20;18.95;;;;;;;;;;5014993;28;20378;-85
2021/01/11 01:33:37;;;;;;;21.88;18.52;;;;;;;;;;5014187;28;20395;-85
2021/01/11 01:36:03;;;;;;;22.48;18.88;;;;;;;;;;5014042;28;20380;-85
2021/01/11 01:38:29;;;;;;;23.50;19.38;;;;;;;;;;5014329;28;20403;-85
2021/01/11 01:40:56;;;;;;;25.25;20.35;;;;;;;;;;5014196;28;20695;-86
2021/01/11 01:43:22;;;;;;;22.90;19.45;;;;;;;;;;5013918;28;20371;-85
2021/01/11 01:45:48;;;;;;;23.45;18.80;;;;;;;;;;5014059;28;20872;-87
2021/01/11 01:48:14;;;;;;;25.42;19.65;;;;;;;;;;4997871;28;20378;-87
2021/01/11 01:50:41;;;;;;;23.02;19.35;;;;;;;;;;5013182;28;20919;-87
2021/01/11 01:53:08;;;;;;;25.08;20.35;;;;;;;;;;5013832;28;20406;-86
2021/01/11 01:55:37;;;;;;;24.27;19.77;;;;;;;;;;5015308;28;20385;-85
2021/01/11 01:58:03;;;;;;;22.92;19.58;;;;;;;;;;5013602;28;20370;-86
2021/01/11 02:00:30;;;;;;;23.95;19.13;;;;;;;;;;5013914;28;20858;-86
2021/01/11 02:02:56;;;;;;;24.42;19.60;;;;;;;;;;5012476;28;20383;-86
2021/01/11 02:05:22;;;;;;;25.02;19.20;;;;;;;;;;5010511;28;20388;-85
2021/01/11 02:08:00;;;;;;;23.30;18.92;;;;;;;;;;5013508;28;20916;-84
2021/01/11 02:10:44;;;;;;;22.90;18.70;;;;;;;;;;5013385;28;20941;-86
2021/01/11 02:13:28;;;;;;;22.00;18.52;;;;;;;;;;5013190;28;20403;-87
2021/01/11 02:16:14;;;;;;;23.00;19.00;;;;;;;;;;5013672;28;20426;-87
2021/01/11 02:18:53;;;;;;;22.65;18.98;;;;;;;;;;5006334;28;20430;-88
2021/01/11 02:21:42;;;;;;;23.88;19.00;;;;;;;;;;5013323;28;20418;-86
2021/01/11 02:24:08;;;;;;;23.75;19.10;;;;;;;;;;4984877;28;20458;-88
2021/01/11 02:26:53;;;;;;;26.13;20.88;;;;;;;;;;5013478;28;20378;-85
2021/01/11 02:29:18;;;;;;;25.77;21.05;;;;;;;;;;5013024;28;21090;-87
2021/01/11 02:31:45;;;;;;;27.60;21.55;;;;;;;;;;4996776;28;20415;-86
2021/01/11 02:34:11;;;;;;;25.95;21.05;;;;;;;;;;5014475;28;20426;-86
2021/01/11 02:36:39;;;;;;;27.27;21.73;;;;;;;;;;5014287;28;20383;-86
2021/01/11 02:39:05;;;;;;;28.40;21.27;;;;;;;;;;5013029;28;20454;-86
2021/01/11 02:41:40;;;;;;;26.93;21.97;;;;;;;;;;5013477;28;20378;-86
2021/01/11 02:44:06;;;;;;;27.38;21.80;;;;;;;;;;5012304;28;20383;-85
2021/01/11 02:46:52;;;;;;;27.20;22.15;;;;;;;;;;5006016;28;20389;-88
2021/01/11 02:49:26;;;;;;;27.05;22.42;;;;;;;;;;5008580;28;20380;-87
2021/01/11 02:52:12;;;;;;;29.67;22.85;;;;;;;;;;4994524;28;20382;-86
2021/01/11 02:54:46;;;;;;;30.20;22.73;;;;;;;;;;4996906;28;20420;-87
2021/01/11 02:57:32;;;;;;;26.63;21.27;;;;;;;;;;5013636;28;20484;-88
2021/01/11 02:59:59;;;;;;;29.88;23.95;;;;;;;;;;5013099;28;20363;-85
2021/01/11 03:02:28;;;;;;;28.52;23.25;;;;;;;;;;5008359;28;20460;-87
2021/01/11 03:04:54;;;;;;;27.60;22.60;;;;;;;;;;5009772;28;20383;-86
2021/01/11 03:07:20;;;;;;;26.33;22.17;;;;;;;;;;5013797;28;20483;-85
2021/01/11 03:09:47;;;;;;;31.50;23.85;;;;;;;;;;5012368;28;20789;-86
2021/01/11 03:12:14;;;;;;;27.92;22.60;;;;;;;;;;5008559;28;20498;-85
2021/01/11 03:14:40;;;;;;;27.77;22.98;;;;;;;;;;5000714;28;20404;-85
2021/01/11 03:17:07;;;;;;;27.90;22.35;;;;;;;;;;5014668;28;20407;-85
2021/01/11 03:19:33;;;;;;;27.95;22.83;;;;;;;;;;4996103;28;20431;-85
2021/01/11 03:22:01;;;;;;;26.92;22.23;;;;;;;;;;5009357;28;20856;-85
2021/01/11 03:24:27;;;;;;;28.42;21.98;;;;;;;;;;5011446;28;20381;-86
2021/01/11 03:26:57;;;;;;;28.40;22.33;;;;;;;;;;5013863;28;20383;-87
2021/01/11 03:29:23;;;;;;;26.27;21.53;;;;;;;;;;5017999;28;20377;-87
2021/01/11 03:31:52;;;;;;;28.95;23.05;;;;;;;;;;5004687;28;20379;-87
2021/01/11 03:34:18;;;;;;;27.02;22.30;;;;;;;;;;5010666;28;20411;-87
2021/01/11 03:36:45;;;;;;;26.03;22.17;;;;;;;;;;5003483;28;20407;-86
2021/01/11 03:39:12;;;;;;;29.20;22.98;;;;;;;;;;5008836;28;20408;-86
2021/01/11 03:41:39;;;;;;;28.35;23.65;;;;;;;;;;4998695;28;20379;-88
2021/01/11 03:44:05;;;;;;;25.75;22.13;;;;;;;;;;5002969;28;20389;-86
2021/01/11 03:46:31;;;;;;;27.25;21.90;;;;;;;;;;5012301;28;20360;-86
2021/01/11 03:49:00;;;;;;;27.77;22.02;;;;;;;;;;5011821;28;20458;-86
2021/01/11 03:51:30;;;;;;;29.38;22.92;;;;;;;;;;5011653;28;20367;-86
2021/01/11 03:53:56;;;;;;;24.80;20.85;;;;;;;;;;5011679;28;20452;-85
2021/01/11 03:56:22;;;;;;;27.60;22.87;;;;;;;;;;5006971;28;20456;-86
2021/01/11 03:58:48;;;;;;;28.50;22.73;;;;;;;;;;4991920;28;20377;-85
2021/01/11 04:01:15;;;;;;;27.30;21.65;;;;;;;;;;4992713;28;20716;-86
2021/01/11 04:03:41;;;;;;;25.25;21.55;;;;;;;;;;4975677;28;20650;-89
2021/01/11 04:06:08;;;;;;;26.58;21.77;;;;;;;;;;4978651;28;20378;-86
2021/01/11 04:08:34;;;;;;;25.73;21.52;;;;;;;;;;5011676;28;20367;-85
2021/01/11 04:11:00;;;;;;;29.65;23.15;;;;;;;;;;5011190;28;20367;-85
2021/01/11 04:13:26;;;;;;;24.17;21.52;;;;;;;;;;5010742;28;20427;-86
2021/01/11 04:15:52;;;;;;;26.33;22.15;;;;;;;;;;5011434;28;20867;-86
2021/01/11 04:18:18;;;;;;;25.60;22.00;;;;;;;;;;5011834;28;20372;-86
2021/01/11 04:20:47;;;;;;;26.17;21.70;;;;;;;;;;5011286;28;20649;-85
2021/01/11 04:23:13;;;;;;;28.05;22.23;;;;;;;;;;4994877;28;20854;-87
2021/01/11 04:25:39;;;;;;;26.55;20.83;;;;;;;;;;5011438;28;20375;-86
2021/01/11 04:28:05;;;;;;;25.58;22.05;;;;;;;;;;5011661;28;20371;-86
2021/01/11 04:30:31;;;;;;;25.40;20.80;;;;;;;;;;5011496;28;20371;-85
2021/01/11 04:32:57;;;;;;;26.60;21.60;;;;;;;;;;5010823;28;20409;-89
2021/01/11 04:35:24;;;;;;;25.08;21.17;;;;;;;;;;5011488;28;20383;-86
2021/01/11 04:37:50;;;;;;;25.50;22.23;;;;;;;;;;5007215;28;20537;-86
2021/01/11 04:40:16;;;;;;;27.95;22.02;;;;;;;;;;5007415;28;20869;-86
2021/01/11 04:42:56;;;;;;;24.00;21.45;;;;;;;;;;5006908;28;20497;-85
2021/01/11 04:45:24;;;;;;;25.92;21.40;;;;;;;;;;4990866;28;20420;-86
2021/01/11 04:47:57;;;;;;;26.20;22.40;;;;;;;;;;5000010;28;20384;-85
2021/01/11 04:50:23;;;;;;;24.87;21.13;;;;;;;;;;4991402;28;20509;-85
2021/01/11 04:52:49;;;;;;;28.05;22.80;;;;;;;;;;4993182;28;20369;-85
2021/01/11 04:55:15;;;;;;;25.15;21.52;;;;;;;;;;4991513;28;20424;-88
2021/01/11 04:57:52;;;;;;;25.88;21.85;;;;;;;;;;5006786;28;20881;-85
2021/01/11 05:00:29;;;;;;;23.80;21.20;;;;;;;;;;5010853;28;20376;-85
2021/01/11 05:03:02;;;;;;;24.47;21.07;;;;;;;;;;4993894;28;20389;-85
2021/01/11 05:05:31;;;;;;;24.33;21.10;;;;;;;;;;4991396;28;20440;-86
2021/01/11 05:07:58;;;;;;;25.67;21.38;;;;;;;;;;5009175;28;20364;-86
2021/01/11 05:10:25;;;;;;;24.58;21.23;;;;;;;;;;5011031;28;20401;-86
2021/01/11 05:12:55;;;;;;;23.83;20.15;;;;;;;;;;5010565;28;20931;-86
2021/01/11 05:15:21;;;;;;;23.25;20.75;;;;;;;;;;5011349;28;20387;-86
2021/01/11 05:17:47;;;;;;;25.58;21.20;;;;;;;;;;5011115;28;20376;-87
2021/01/11 05:20:14;;;;;;;23.45;21.05;;;;;;;;;;5010796;28;20734;-86
2021/01/11 05:22:50;;;;;;;22.73;20.27;;;;;;;;;;5013349;28;20379;-88
2021/01/11 05:25:17;;;;;;;23.80;20.63;;;;;;;;;;4994180;28;20483;-87
2021/01/11 05:28:13;;;;;;;22.23;19.88;;;;;;;;;;5007532;28;20385;-86
2021/01/11 05:30:40;;;;;;;23.60;19.67;;;;;;;;;;4993563;28;20383;-86
2021/01/11 05:33:07;;;;;;;21.20;18.65;;;;;;;;;;4994467;28;20930;-86
2021/01/11 05:35:33;;;;;;;22.42;20.02;;;;;;;;;;4994832;28;20376;-86
2021/01/11 05:38:17;;;;;;;21.80;19.23;;;;;;;;;;5001597;28;20515;-87
2021/01/11 05:40:43;;;;;;;23.23;20.33;;;;;;;;;;5013941;28;20383;-87
2021/01/11 05:43:09;;;;;;;22.15;19.30;;;;;;;;;;4994266;28;20452;-88
2021/01/11 05:45:36;;;;;;;24.47;19.43;;;;;;;;;;5003019;28;20874;-91
2021/01/11 05:48:04;;;;;;;22.70;19.50;;;;;;;;;;5013701;28;20852;-86
2021/01/11 05:50:31;;;;;;;23.83;18.98;;;;;;;;;;5011366;28;20403;-91
2021/01/11 05:52:57;;;;;;;20.17;18.08;;;;;;;;;;5012468;28;20410;-91
2021/01/11 05:55:28;;;;;;;21.60;19.25;;;;;;;;;;5014253;28;20375;-88
2021/01/11 05:57:55;;;;;;;21.60;18.42;;;;;;;;;;5015209;28;20378;-90
2021/01/11 06:00:22;;;;;;;21.58;19.25;;;;;;;;;;5014032;28;20453;-90
2021/01/11 06:02:54;;;;;;;22.10;18.73;;;;;;;;;;5000726;28;20467;-92
2021/01/11 06:05:23;;;;;;;22.10;18.88;;;;;;;;;;5015826;28;20376;-91
2021/01/11 06:07:49;;;;;;;22.02;19.30;;;;;;;;;;4992266;28;20381;-90
2021/01/11 06:10:16;;;;;;;21.45;18.38;;;;;;;;;;4998445;28;20405;-90
2021/01/11 06:12:57;;;;;;;20.70;18.03;;;;;;;;;;4997258;28;20441;-92
2021/01/11 06:15:24;;;;;;;21.20;19.00;;;;;;;;;;5014483;28;20850;-89
2021/01/11 06:17:51;;;;;;;23.85;19.50;;;;;;;;;;5013852;28;20372;-88
2021/01/11 06:20:28;;;;;;;20.73;18.50;;;;;;;;;;4994167;28;20480;-89
2021/01/11 06:22:54;;;;;;;22.73;20.00;;;;;;;;;;5002669;28;20442;-90
2021/01/11 06:25:20;;;;;;;23.63;20.30;;;;;;;;;;4995675;28;20428;-91
2021/01/11 06:28:01;;;;;;;22.80;18.83;;;;;;;;;;5007259;28;20380;-90
2021/01/11 06:30:33;;;;;;;21.45;19.20;;;;;;;;;;5007334;28;20376;-90
2021/01/11 06:33:19;;;;;;;22.67;19.73;;;;;;;;;;5001140;28;20412;-91
2021/01/11 06:35:46;;;;;;;22.98;19.88;;;;;;;;;;4974824;28;20495;-91
2021/01/11 06:38:19;;;;;;;24.05;20.10;;;;;;;;;;5014029;28;20394;-91
2021/01/11 06:41:06;;;;;;;23.02;19.48;;;;;;;;;;5013637;28;20854;-92
2021/01/11 06:43:45;;;;;;;22.20;19.83;;;;;;;;;;4983782;28;20736;-91
2021/01/11 06:46:30;;;;;;;22.80;19.83;;;;;;;;;;5005345;28;20379;-91
2021/01/11 06:48:57;;;;;;;21.80;19.27;;;;;;;;;;5002105;28;20389;-91
2021/01/11 06:51:30;;;;;;;22.00;18.88;;;;;;;;;;5002414;28;20385;-92
2021/01/11 06:54:09;;;;;;;22.45;19.70;;;;;;;;;;5001846;28;20448;-92
2021/01/11 06:56:36;;;;;;;22.60;19.88;;;;;;;;;;4994234;28;20381;-92
2021/01/11 06:59:11;;;;;;;24.60;20.70;;;;;;;;;;4995676;28;20452;-92
2021/01/11 07:01:38;;;;;;;22.73;20.33;;;;;;;;;;5001715;28;20375;-92
2021/01/11 07:04:05;;;;;;;23.88;20.08;;;;;;;;;;5010244;28;20391;-91
2021/01/11 07:06:38;;;;;;;22.35;19.10;;;;;;;;;;5005751;28;20386;-92
2021/01/11 07:09:14;;;;;;;23.80;20.20;;;;;;;;;;5015145;28;20861;-93
2021/01/11 07:11:41;;;;;;;22.55;19.85;;;;;;;;;;5011415;28;20383;-91
2021/01/11 07:14:08;;;;;;;22.17;19.70;;;;;;;;;;4999874;28;20909;-91
2021/01/11 07:16:41;;;;;;;22.77;18.98;;;;;;;;;;5010046;28;20466;-89
2021/01/11 07:19:07;;;;;;;23.80;20.50;;;;;;;;;;5007033;28;20373;-84
2021/01/11 07:21:35;;;;;;;22.05;19.30;;;;;;;;;;5004733;28;20867;-85
2021/01/11 07:24:03;;;;;;;22.40;19.38;;;;;;;;;;5004385;28;20371;-92
2021/01/11 07:26:29;;;;;;;25.95;20.67;;;;;;;;;;5005410;28;20378;-95
2021/01/11 07:29:05;;;;;;;22.77;19.60;;;;;;;;;;5011234;28;20373;-92
2021/01/11 07:31:35;;;;;;;23.40;19.47;;;;;;;;;;5012455;28;20466;-92
2021/01/11 07:34:06;;;;;;;21.50;19.20;;;;;;;;;;5012630;28;20399;-93
2021/01/11 07:36:35;;;;;;;22.65;20.10;;;;;;;;;;5002120;28;20889;-92
2021/01/11 07:39:24;;;;;;;22.17;19.67;;;;;;;;;;5013813;28;20379;-92
2021/01/11 07:41:57;;;;;;;22.60;19.67;;;;;;;;;;5024302;28;20446;-94
2021/01/11 07:44:26;;;;;;;22.20;19.58;;;;;;;;;;5007533;28;20885;-92
2021/01/11 07:47:01;;;;;;;22.65;19.50;;;;;;;;;;5014367;28;21191;-92
2021/01/11 07:49:29;;;;;;;23.48;19.45;;;;;;;;;;4995894;28;20387;-92
2021/01/11 07:52:00;;;;;;;23.95;20.08;;;;;;;;;;5002684;28;20470;-91
2021/01/11 07:54:28;;;;;;;25.13;21.10;;;;;;;;;;4999916;28;20902;-92
2021/01/11 07:56:55;;;;;;;23.05;20.55;;;;;;;;;;5005715;28;20383;-94
2021/01/11 07:59:25;;;;;;;25.30;21.85;;;;;;;;;;5004114;28;20469;-93
2021/01/11 08:01:52;;;;;;;24.15;21.35;;;;;;;;;;5001153;28;21057;-90
2021/01/11 08:04:19;;;;;;;24.02;21.15;;;;;;;;;;5007886;28;20381;-89
2021/01/11 08:06:46;;;;;;;24.95;21.45;;;;;;;;;;5000941;28;20510;-84
2021/01/11 08:09:13;;;;;;;25.33;21.48;;;;;;;;;;5012703;28;20371;-88
2021/01/11 08:11:47;;;;;;;26.13;22.48;;;;;;;;;;5010438;28;20873;-91
2021/01/11 08:14:14;;;;;;;25.50;22.17;;;;;;;;;;5024211;28;20405;-83
2021/01/11 08:16:49;;;;;;;26.17;22.42;;;;;;;;;;4999851;28;20813;-91
2021/01/11 08:19:15;;;;;;;26.15;22.15;;;;;;;;;;4991931;28;21307;-93
2021/01/11 08:21:42;;;;;;;23.45;20.88;;;;;;;;;;4992902;28;20387;-93
2021/01/11 08:24:10;;;;;;;24.10;20.73;;;;;;;;;;5008807;28;20386;-92
2021/01/11 08:26:50;;;;;;;24.07;20.73;;;;;;;;;;5001439;28;20535;-93
2021/01/11 08:29:16;;;;;;;23.48;20.23;;;;;;;;;;5001578;28;20380;-87
2021/01/11 08:31:44;;;;;;;23.80;20.92;;;;;;;;;;5010191;28;20751;-86
2021/01/11 08:34:10;;;;;;;26.00;22.23;;;;;;;;;;5012459;28;20399;-88
2021/01/11 08:36:36;;;;;;;24.17;21.45;;;;;;;;;;5009106;28;20762;-90
2021/01/11 08:39:15;;;;;;;26.63;22.40;;;;;;;;;;5002802;28;20382;-89
2021/01/11 08:41:56;;;;;;;26.80;22.00;;;;;;;;;;5011443;28;20379;-89
2021/01/11 08:44:26;;;;;;;27.90;22.67;;;;;;;;;;5010384;28;20450;-89
2021/01/11 08:47:12;;;;;;;25.40;21.65;;;;;;;;;;5012134;28;20539;-89
2021/01/11 08:49:58;;;;;;;27.25;22.27;;;;;;;;;;4994540;28;20380;-90
2021/01/11 08:52:29;;;;;;;24.13;21.48;;;;;;;;;;5009296;28;20850;-89
2021/01/11 08:54:56;;;;;;;25.30;21.63;;;;;;;;;;4999790;28;20412;-89
2021/01/11 08:57:27;;;;;;;24.38;19.95;;;;;;;;;;5002558;28;20708;-90
2021/01/11 08:59:54;;;;;;;23.55;20.23;;;;;;;;;;5011646;28;20371;-96
2021/01/11 09:02:30;;;;;;;24.70;20.65;;;;;;;;;;5017217;28;20375;-93
2021/01/11 09:04:57;;;;;;;22.75;19.50;;;;;;;;;;5007501;28;20368;-94
2021/01/11 09:07:27;;;;;;;22.83;19.95;;;;;;;;;;4989714;28;20381;-93
2021/01/11 09:09:53;;;;;;;21.05;18.75;;;;;;;;;;5024681;28;20421;-94
2021/01/11 09:12:40;;;;;;;21.40;18.48;;;;;;;;;;5012235;28;20384;-93
2021/01/11 09:15:10;;;;;;;23.15;19.77;;;;;;;;;;5022103;28;20405;-93
2021/01/11 09:17:59;;;;;;;22.90;20.45;;;;;;;;;;5017418;28;20396;-94
2021/01/11 09:20:28;;;;;;;22.90;19.95;;;;;;;;;;5020960;28;20402;-94
2021/01/11 09:23:03;;;;;;;22.40;19.52;;;;;;;;;;5019261;28;20399;-93
2021/01/11 09:25:49;;;;;;;21.80;19.40;;;;;;;;;;5012495;28;20406;-93
2021/01/11 09:28:17;;;;;;;24.55;19.90;;;;;;;;;;5017560;28;20386;-94
2021/01/11 09:30:46;;;;;;;21.83;19.30;;;;;;;;;;5023443;28;20921;-94
2021/01/11 09:33:17;;;;;;;24.77;19.77;;;;;;;;;;5043200;28;20404;-94
2021/01/11 09:35:46;;;;;;;20.55;18.35;;;;;;;;;;4998648;28;20408;-95
2021/01/11 09:38:17;;;;;;;22.58;17.98;;;;;;;;;;5015598;28;20582;-91
2021/01/11 09:40:43;;;;;;;20.13;18.02;;;;;;;;;;4996213;28;20389;-88
2021/01/11 09:43:11;;;;;;;19.13;16.92;;;;;;;;;;5006308;28;20385;-90
2021/01/11 09:45:37;;;;;;;19.92;17.73;;;;;;;;;;5009163;28;20379;-90
2021/01/11 09:48:05;;;;;;;19.88;17.17;;;;;;;;;;5006493;28;20380;-91
2021/01/11 09:50:32;;;;;;;17.83;16.00;;;;;;;;;;5009924;28;20376;-91
2021/01/11 09:53:00;;;;;;;19.63;17.48;;;;;;;;;;5014503;28;20364;-92
2021/01/11 09:55:32;;;;;;;19.40;17.27;;;;;;;;;;5015416;28;20369;-90
2021/01/11 09:58:01;;;;;;;19.17;16.73;;;;;;;;;;5013758;28;20527;-92
2021/01/11 10:00:27;;;;;;;18.98;16.98;;;;;;;;;;5013372;28;20410;-90
2021/01/11 10:02:53;;;;;;;18.13;16.23;;;;;;;;;;5012605;28;20380;-87
2021/01/11 10:05:20;;;;;;;18.10;16.13;;;;;;;;;;5011178;28;20426;-93
2021/01/11 10:07:49;;;;;;;18.00;15.85;;;;;;;;;;5011273;28;20365;-90
2021/01/11 10:10:15;;;;;;;21.15;16.15;;;;;;;;;;5010624;28;20380;-90
2021/01/11 10:12:41;;;;;;;17.95;16.05;;;;;;;;;;5013857;28;20381;-90
2021/01/11 10:15:07;;;;;;;18.25;15.45;;;;;;;;;;5018163;28;20420;-86
2021/01/11 10:17:33;;;;;;;17.77;15.35;;;;;;;;;;5022754;28;20388;-91
2021/01/11 10:20:00;;;;;;;17.30;15.43;;;;;;;;;;5013125;28;20451;-91
2021/01/11 10:22:26;;;;;;;16.53;14.80;;;;;;;;;;5011046;28;20387;-89
2021/01/11 10:24:52;;;;;;;18.80;15.73;;;;;;;;;;5011680;28;20391;-88
2021/01/11 10:27:18;;;;;;;18.58;15.88;;;;;;;;;;5014254;28;20383;-87
2021/01/11 10:29:44;;;;;;;17.52;14.80;;;;;;;;;;5012302;28;20364;-87
2021/01/11 10:32:10;;;;;;;17.52;15.70;;;;;;;;;;5013560;28;20390;-87
2021/01/11 10:34:36;;;;;;;17.70;15.63;;;;;;;;;;5008988;28;20403;-89
2021/01/11 10:37:02;;;;;;;19.20;16.52;;;;;;;;;;5011216;28;20450;-92
2021/01/11 10:39:28;;;;;;;18.10;15.70;;;;;;;;;;5006330;28;20470;-88
2021/01/11 10:41:55;;;;;;;20.05;16.40;;;;;;;;;;5011366;28;20480;-90
2021/01/11 10:44:22;;;;;;;21.37;17.77;;;;;;;;;;5012025;28;20363;-91
2021/01/11 10:46:49;;;;;;;20.48;16.90;;;;;;;;;;5012990;28;20378;-89
2021/01/11 10:49:15;;;;;;;20.47;18.13;;;;;;;;;;5013872;28;20375;-90
2021/01/11 10:51:41;;;;;;;18.30;16.33;;;;;;;;;;5015297;28;20434;-88
2021/01/11 10:54:07;;;;;;;20.45;17.65;;;;;;;;;;5020147;28;20498;-85
2021/01/11 10:56:33;;;;;;;20.42;17.42;;;;;;;;;;5019120;28;20382;-85
2021/01/11 10:58:59;;;;;;;21.13;18.23;;;;;;;;;;5016237;28;20946;-87
2021/01/11 11:01:25;;;;;;;20.60;17.23;;;;;;;;;;5012865;28;20512;-92
2021/01/11 11:03:52;;;;;;;19.80;17.63;;;;;;;;;;5011867;28;20888;-90
2021/01/11 11:06:22;;;;;;;22.38;18.23;;;;;;;;;;5006811;28;20367;-91
2021/01/11 11:08:48;;;;;;;21.00;18.75;;;;;;;;;;5011341;28;20371;-89
2021/01/11 11:11:14;;;;;;;21.35;18.40;;;;;;;;;;5009060;28;20377;-89
2021/01/11 11:13:41;;;;;;;21.55;17.85;;;;;;;;;;5015355;28;20858;-91
2021/01/11 11:16:08;;;;;;;22.70;19.10;;;;;;;;;;5014424;28;20389;-92
2021/01/11 11:18:38;;;;;;;21.63;18.20;;;;;;;;;;5007733;28;20369;-92
2021/01/11 11:21:08;;;;;;;22.40;18.87;;;;;;;;;;5006525;28;20375;-86
2021/01/11 11:23:34;;;;;;;22.05;18.65;;;;;;;;;;5006306;28;20403;-92
2021/01/11 11:26:01;;;;;;;22.23;18.27;;;;;;;;;;5001816;28;20382;-84
2021/01/11 11:28:27;;;;;;;19.38;17.38;;;;;;;;;;5012937;28;20379;-89
2021/01/11 11:30:53;;;;;;;21.53;17.00;;;;;;;;;;5005836;28;20365;-87
2021/01/11 11:33:19;;;;;;;22.35;18.33;;;;;;;;;;5008388;28;20393;-86
2021/01/11 11:35:45;;;;;;;18.65;16.63;;;;;;;;;;5002070;28;20383;-86
2021/01/11 11:38:11;;;;;;;19.35;16.75;;;;;;;;;;5011061;28;20477;-86
2021/01/11 11:40:38;;;;;;;20.67;17.83;;;;;;;;;;5002223;28;20360;-86
2021/01/11 11:43:04;;;;;;;21.58;17.38;;;;;;;;;;5008018;28;20406;-87
2021/01/11 11:45:31;;;;;;;19.58;16.45;;;;;;;;;;4998848;28;20392;-90
2021/01/11 11:47:57;;;;;;;20.60;16.58;;;;;;;;;;5005937;28;20458;-85
2021/01/11 11:50:23;;;;;;;21.33;17.17;;;;;;;;;;5001228;28;20374;-86
2021/01/11 11:52:49;;;;;;;20.13;16.42;;;;;;;;;;5000812;28;20372;-85
2021/01/11 11:55:16;;;;;;;19.42;16.40;;;;;;;;;;5003047;28;20381;-88
2021/01/11 11:57:42;;;;;;;22.10;17.27;;;;;;;;;;5005923;28;20415;-86
2021/01/11 12:00:09;;;;;;;20.65;16.48;;;;;;;;;;5002484;28;20871;-86
2021/01/11 12:02:36;;;;;;;20.05;17.20;;;;;;;;;;5004941;28;20476;-87
2021/01/11 12:05:02;;;;;;;20.77;16.85;;;;;;;;;;4998102;28;20369;-90
2021/01/11 12:07:28;;;;;;;19.17;15.77;;;;;;;;;;5007134;28;20430;-90
2021/01/11 12:09:54;;;;;;;20.07;17.07;;;;;;;;;;5003460;28;20359;-86
2021/01/11 12:12:21;;;;;;;31.27;20.25;;;;;;;;;;5012666;28;20364;-92
2021/01/11 12:14:47;;;;;;;21.30;17.20;;;;;;;;;;5005241;28;20893;-87
2021/01/11 12:17:13;;;;;;;23.15;17.60;;;;;;;;;;5007087;28;20371;-85
2021/01/11 12:19:39;;;;;;;19.58;16.02;;;;;;;;;;5005013;28;20399;-89
2021/01/11 12:22:06;;;;;;;20.50;17.30;;;;;;;;;;5007044;28;21234;-90
2021/01/11 12:24:32;;;;;;;20.40;16.58;;;;;;;;;;5004063;28;20473;-86
2021/01/11 12:26:58;;;;;;;21.50;17.42;;;;;;;;;;5002193;28;20707;-85
2021/01/11 12:29:24;;;;;;;18.77;16.35;;;;;;;;;;5001671;28;20401;-88
2021/01/11 12:31:52;;;;;;;21.63;16.92;;;;;;;;;;5004928;28;20453;-87
2021/01/11 12:34:18;;;;;;;21.07;16.97;;;;;;;;;;5005916;28;20400;-93
2021/01/11 12:36:44;;;;;;;22.10;18.10;;;;;;;;;;5008244;28;20762;-88
2021/01/11 12:39:11;;;;;;;24.13;17.63;;;;;;;;;;5009459;28;20366;-86
2021/01/11 12:41:38;;;;;;;21.92;15.88;;;;;;;;;;5008174;28;20542;-90
2021/01/11 12:44:11;;;;;;;21.88;17.52;;;;;;;;;;5011551;28;20363;-83
2021/01/11 12:46:37;;;;;;;21.27;17.05;;;;;;;;;;5021027;28;20406;-86
2021/01/11 12:49:05;;;;;;;24.75;17.92;;;;;;;;;;5010705;28;20874;-87
2021/01/11 12:51:31;;;;;;;23.02;17.58;;;;;;;;;;5009062;28;20382;-86
2021/01/11 12:53:58;;;;;;;24.77;18.20;;;;;;;;;;5010508;28;21141;-89
2021/01/11 12:56:25;;;;;;;22.27;18.05;;;;;;;;;;5010539;28;20434;-90
2021/01/11 12:58:52;;;;;;;24.23;17.88;;;;;;;;;;5010254;28;20376;-89
2021/01/11 13:01:22;;;;;;;21.48;16.95;;;;;;;;;;5003828;28;20379;-87
2021/01/11 13:03:49;;;;;;;22.35;17.92;;;;;;;;;;5009798;28;20381;-89
2021/01/11 13:06:31;;;;;;;20.73;17.20;;;;;;;;;;5006610;28;20415;-92
2021/01/11 13:08:58;;;;;;;21.30;17.10;;;;;;;;;;5012996;28;20746;-86
2021/01/11 13:11:24;;;;;;;22.38;16.85;;;;;;;;;;5012492;28;20418;-86
2021/01/11 13:13:52;;;;;;;20.88;16.55;;;;;;;;;;5006986;28;20395;-87
2021/01/11 13:16:24;;;;;;;20.05;16.27;;;;;;;;;;5008377;28;20367;-85
2021/01/11 13:18:54;;;;;;;18.75;15.45;;;;;;;;;;5000919;28;20402;-83
2021/01/11 13:21:21;;;;;;;17.45;14.73;;;;;;;;;;5008367;28;20374;-83
2021/01/11 13:23:49;;;;;;;19.55;15.63;;;;;;;;;;5004627;28;20379;-89
2021/01/11 13:26:28;;;;;;;19.95;16.38;;;;;;;;;;5008159;28;20375;-87
2021/01/11 13:29:00;;;;;;;18.13;14.93;;;;;;;;;;5010559;28;20367;-85
2021/01/11 13:31:29;;;;;;;18.75;15.82;;;;;;;;;;5010393;28;20437;-90
2021/01/11 13:33:57;;;;;;;17.13;14.85;;;;;;;;;;5003321;28;20482;-88
2021/01/11 13:36:28;;;;;;;17.52;14.77;;;;;;;;;;4983227;28;20381;-87
2021/01/11 13:38:55;;;;;;;17.73;14.80;;;;;;;;;;5004713;28;20368;-88
2021/01/11 13:41:29;;;;;;;21.00;16.05;;;;;;;;;;5011095;28;20392;-86
2021/01/11 13:43:56;;;;;;;18.42;15.35;;;;;;;;;;5008618;28;20470;-88
2021/01/11 13:46:25;;;;;;;21.00;15.63;;;;;;;;;;5010898;28;20371;-91
2021/01/11 13:48:51;;;;;;;19.98;15.90;;;;;;;;;;5008891;28;20377;-89
2021/01/11 13:51:18;;;;;;;19.80;15.32;;;;;;;;;;5005964;28;20403;-88
2021/01/11 13:53:44;;;;;;;20.70;15.80;;;;;;;;;;5008628;28;20410;-88
2021/01/11 13:56:11;;;;;;;18.52;14.95;;;;;;;;;;5008678;28;20881;-89
2021/01/11 13:58:37;;;;;;;17.23;15.10;;;;;;;;;;5013006;28;20369;-91
2021/01/11 14:01:03;;;;;;;18.73;14.65;;;;;;;;;;5011012;28;20379;-91
2021/01/11 14:03:32;;;;;;;16.40;13.73;;;;;;;;;;4994593;28;20387;-89
2021/01/11 14:05:58;;;;;;;20.57;15.77;;;;;;;;;;5010993;28;20376;-88
2021/01/11 14:08:24;;;;;;;17.52;14.40;;;;;;;;;;5008536;28;20397;-92
2021/01/11 14:10:50;;;;;;;16.67;14.07;;;;;;;;;;5012519;28;20531;-90
2021/01/11 14:13:16;;;;;;;17.15;14.35;;;;;;;;;;5013298;28;20408;-89
2021/01/11 14:15:43;;;;;;;17.83;14.63;;;;;;;;;;5022479;28;20911;-86
2021/01/11 14:18:09;;;;;;;18.70;14.82;;;;;;;;;;5012474;28;20400;-90
2021/01/11 14:20:35;;;;;;;17.40;14.10;;;;;;;;;;5011542;28;20427;-88
2021/01/11 14:23:02;;;;;;;16.07;14.13;;;;;;;;;;5009039;28;20383;-88
2021/01/11 14:25:28;;;;;;;17.15;14.10;;;;;;;;;;5011770;28;20379;-88
2021/01/11 14:27:54;;;;;;;17.40;13.35;;;;;;;;;;5016774;28;20390;-88